Time;durP1;ratioP1;P1;durP2;ratioP2;P2;SDS_P1;SDS_P2;PMS_P1;PMS_P2;Temp;Humidity;BMP_temperature;BMP_pressure;BME280_temperature;BME280_humidity;BME280_pressure;Samples;Min_cycle;Max_cycle;Signal;HPM_P1;HPM_P2
2021/12/06 00:01:49;;;;;;;34.20;22.33;;;3.50;99.90;;;;;;6118535;23;20615;-79
2021/12/06 00:04:24;;;;;;;33.00;22.20;;;3.50;99.90;;;;;;6116618;23;20606;-78
2021/12/06 00:06:55;;;;;;;32.03;21.50;;;3.60;99.90;;;;;;6116654;23;20645;-79
2021/12/06 00:09:24;;;;;;;30.47;21.10;;;3.10;99.90;;;;;;6118461;23;20638;-79
2021/12/06 00:11:56;;;;;;;28.20;20.10;;;3.50;99.90;;;;;;6119585;23;21141;-83
2021/12/06 00:14:28;;;;;;;30.40;20.70;;;3.50;99.90;;;;;;6116802;23;20573;-79
2021/12/06 00:17:01;;;;;;;27.60;20.37;;;3.50;99.90;;;;;;6118789;23;20585;-79
2021/12/06 00:19:31;;;;;;;29.93;20.50;;;3.50;99.90;;;;;;6117705;23;20742;-79
2021/12/06 00:22:01;;;;;;;28.73;18.60;;;3.50;99.90;;;;;;6117495;23;20577;-78
2021/12/06 00:24:29;;;;;;;29.00;19.93;;;3.50;99.90;;;;;;6118814;23;20621;-79
2021/12/06 00:26:54;;;;;;;31.27;21.10;;;3.50;99.90;;;;;;6117454;23;20604;-79
2021/12/06 00:29:20;;;;;;;30.77;20.33;;;3.50;99.90;;;;;;6117661;23;20820;-79
2021/12/06 00:31:47;;;;;;;30.80;19.53;;;3.50;99.90;;;;;;6118246;23;20561;-81
2021/12/06 00:34:16;;;;;;;30.60;19.70;;;3.50;99.90;;;;;;6120558;23;20257;-79
2021/12/06 00:36:52;;;;;;;31.70;20.43;;;3.50;99.90;;;;;;6116102;23;20642;-79
2021/12/06 00:39:22;;;;;;;29.50;19.13;;;3.50;99.90;;;;;;6118584;23;20656;-79
2021/12/06 00:41:50;;;;;;;29.23;18.87;;;3.50;99.90;;;;;;6118939;23;20569;-79
2021/12/06 00:44:16;;;;;;;32.17;20.60;;;3.50;99.90;;;;;;6119803;23;20589;-79
2021/12/06 00:46:41;;;;;;;30.07;20.83;;;3.50;99.90;;;;;;6116568;23;20662;-79
2021/12/06 00:49:11;;;;;;;30.27;20.93;;;3.50;99.90;;;;;;6123617;23;20468;-79
2021/12/06 00:51:40;;;;;;;27.80;19.93;;;3.50;99.90;;;;;;6118553;23;20266;-79
2021/12/06 00:54:07;;;;;;;29.93;19.43;;;3.50;99.90;;;;;;6119166;23;20563;-79
2021/12/06 00:56:35;;;;;;;26.97;18.80;;;3.40;99.90;;;;;;6116844;23;20653;-79
2021/12/06 00:59:00;;;;;;;32.17;20.07;;;3.50;99.90;;;;;;6119331;23;20596;-80
2021/12/06 01:01:26;;;;;;;30.57;20.33;;;3.50;99.90;;;;;;6115865;23;20574;-78
2021/12/06 01:03:54;;;;;;;28.93;20.60;;;3.30;99.90;;;;;;6119484;23;20268;-79
2021/12/06 01:06:22;;;;;;;28.20;19.03;;;3.50;99.90;;;;;;6121650;23;20260;-80
2021/12/06 01:08:50;;;;;;;25.87;18.23;;;3.50;99.90;;;;;;6122234;23;20604;-80
2021/12/06 01:11:15;;;;;;;28.13;19.60;;;3.50;99.90;;;;;;6122098;23;20541;-79
2021/12/06 01:13:43;;;;;;;32.20;21.30;;;3.50;99.90;;;;;;6119100;23;20633;-79
2021/12/06 01:16:14;;;;;;;31.27;21.03;;;3.50;99.90;;;;;;6115506;23;20233;-81
2021/12/06 01:18:45;;;;;;;32.70;21.67;;;3.50;99.90;;;;;;6141236;23;20636;-79
2021/12/06 01:21:19;;;;;;;34.93;21.30;;;3.50;99.90;;;;;;6119679;23;20567;-79
2021/12/06 01:23:59;;;;;;;31.23;20.27;;;3.50;99.90;;;;;;5125567;27;20871;-86
2021/12/06 01:26:39;;;;;;;32.13;21.10;;;3.50;99.90;;;;;;5122654;28;20638;-86
2021/12/06 01:31:55;;;;;;;33.17;21.30;;;3.40;99.90;;;;;;5107801;28;20700;-83
2021/12/06 01:39:57;;;;;;;27.67;20.23;;;3.40;99.90;;;;;;5107695;28;20678;-88
2021/12/06 01:42:23;;;;;;;32.63;21.33;;;3.40;99.90;;;;;;5090519;28;20636;-84
2021/12/06 01:44:53;;;;;;;29.13;19.80;;;3.40;99.90;;;;;;5112993;28;20620;-86
2021/12/06 01:47:31;;;;;;;30.57;21.27;;;3.40;99.90;;;;;;5080878;28;20244;-81
2021/12/06 01:50:03;;;;;;;27.57;18.73;;;3.40;99.90;;;;;;5103827;28;20624;-83
2021/12/06 01:52:32;;;;;;;28.67;19.77;;;3.40;99.90;;;;;;5086795;28;20655;-84
2021/12/06 01:54:59;;;;;;;28.13;20.07;;;3.40;99.90;;;;;;5105117;28;20607;-84
2021/12/06 01:57:27;;;;;;;29.20;21.10;;;3.40;99.90;;;;;;5094935;28;20629;-83
2021/12/06 01:59:56;;;;;;;27.70;19.23;;;3.40;99.90;;;;;;5101177;28;20677;-86
2021/12/06 02:02:23;;;;;;;27.50;19.90;;;3.30;99.90;;;;;;5084969;28;20661;-86
2021/12/06 02:04:49;;;;;;;29.23;19.50;;;3.40;99.90;;;;;;5072382;28;20613;-87
2021/12/06 02:07:20;;;;;;;31.70;21.27;;;3.30;99.90;;;;;;5084819;28;20625;-84
2021/12/06 02:09:46;;;;;;;28.13;19.90;;;3.30;99.90;;;;;;5083723;28;20646;-85
2021/12/06 02:12:15;;;;;;;29.37;21.07;;;3.30;99.90;;;;;;5070356;28;20626;-83
2021/12/06 02:15:47;;;;;;;30.93;20.60;;;3.30;99.90;;;;;;5090649;28;20681;-84
2021/12/06 02:17:41;;;;;;;32.23;22.03;;;3.30;99.90;;;;;;5072510;28;20638;-82
2021/12/06 02:20:22;;;;;;;31.73;21.67;;;3.30;99.90;;;;;;5086571;28;20642;-86
2021/12/06 02:22:48;;;;;;;31.20;20.87;;;3.30;99.90;;;;;;5069629;28;20996;-84
2021/12/06 02:25:17;;;;;;;30.67;20.30;;;3.30;99.90;;;;;;5089257;28;20610;-82
2021/12/06 02:27:44;;;;;;;29.30;20.63;;;3.30;99.90;;;;;;5087093;28;20215;-88
2021/12/06 02:30:13;;;;;;;26.40;20.33;;;3.30;99.90;;;;;;5087102;28;20633;-85
2021/12/06 02:32:39;;;;;;;26.13;19.57;;;3.30;99.90;;;;;;5089485;28;21114;-83
2021/12/06 02:35:13;;;;;;;27.80;19.87;;;3.30;99.90;;;;;;5075052;28;20605;-86
2021/12/06 02:37:39;;;;;;;28.17;19.07;;;3.20;99.90;;;;;;5071178;28;20776;-81
2021/12/06 02:40:14;;;;;;;27.47;18.80;;;3.20;99.90;;;;;;5090414;28;20617;-83
2021/12/06 02:42:42;;;;;;;28.33;20.23;;;2.70;99.90;;;;;;5088054;28;20645;-85
2021/12/06 02:45:12;;;;;;;31.27;20.37;;;3.20;99.90;;;;;;5070680;28;20699;-85
2021/12/06 02:47:48;;;;;;;28.70;19.07;;;3.20;99.90;;;;;;5055996;28;20632;-85
2021/12/06 02:50:14;;;;;;;28.63;19.40;;;3.20;99.90;;;;;;5087916;28;20680;-85
2021/12/06 02:52:40;;;;;;;28.47;19.70;;;3.20;99.90;;;;;;5071385;28;20679;-86
2021/12/06 02:55:31;;;;;;;28.13;19.50;;;3.10;99.90;;;;;;5073451;28;20631;-84
2021/12/06 02:57:57;;;;;;;28.00;19.53;;;3.10;99.90;;;;;;5070371;28;20763;-83
2021/12/06 03:00:27;;;;;;;27.53;19.60;;;3.00;99.90;;;;;;5070732;28;20622;-81
2021/12/06 03:02:52;;;;;;;28.20;19.10;;;3.00;99.90;;;;;;5071285;28;20630;-87
2021/12/06 03:05:18;;;;;;;24.00;17.73;;;3.00;99.90;;;;;;5054002;28;20629;-84
2021/12/06 03:07:47;;;;;;;27.77;19.87;;;2.90;99.90;;;;;;5057519;28;20682;-83
2021/12/06 03:10:13;;;;;;;30.67;21.07;;;2.90;99.90;;;;;;5048543;28;20621;-84
2021/12/06 03:12:39;;;;;;;29.97;20.30;;;2.90;99.90;;;;;;5058032;28;20653;-85
2021/12/06 03:15:06;;;;;;;28.00;19.53;;;2.80;99.90;;;;;;5071602;28;20606;-86
2021/12/06 03:17:32;;;;;;;26.23;18.90;;;2.80;99.90;;;;;;5053300;28;20301;-83
2021/12/06 03:20:00;;;;;;;27.77;19.57;;;2.70;99.90;;;;;;5073778;28;20631;-82
2021/12/06 03:22:27;;;;;;;30.40;20.70;;;2.70;99.90;;;;;;5067557;28;20685;-81
2021/12/06 03:24:53;;;;;;;24.30;19.20;;;2.70;99.90;;;;;;5074360;28;20678;-81
2021/12/06 03:27:21;;;;;;;29.57;19.73;;;2.60;99.90;;;;;;5072718;28;20650;-80
2021/12/06 03:29:49;;;;;;;28.40;20.60;;;2.60;99.90;;;;;;5078010;28;20665;-87
2021/12/06 03:32:15;;;;;;;26.90;18.67;;;2.60;99.90;;;;;;5039667;28;23541;-83
2021/12/06 03:34:41;;;;;;;25.03;17.90;;;2.60;99.90;;;;;;5071051;28;20713;-88
2021/12/06 03:37:08;;;;;;;29.00;19.77;;;2.50;99.90;;;;;;5072255;28;20708;-85
2021/12/06 03:39:38;;;;;;;29.50;20.00;;;2.50;99.90;;;;;;5085896;28;20667;-84
2021/12/06 03:42:08;;;;;;;29.10;19.07;;;2.50;99.90;;;;;;5075021;28;20638;-83
2021/12/06 03:44:34;;;;;;;28.63;20.03;;;2.40;99.90;;;;;;5074101;28;20630;-84
2021/12/06 03:47:10;;;;;;;25.60;18.47;;;2.40;99.90;;;;;;5056173;28;20665;-81
2021/12/06 03:49:36;;;;;;;30.17;20.27;;;2.40;99.90;;;;;;5073749;28;20744;-82
2021/12/06 03:52:05;;;;;;;31.00;19.80;;;2.30;99.90;;;;;;5074408;28;20709;-83
2021/12/06 03:54:36;;;;;;;28.40;19.93;;;2.30;99.90;;;;;;5075542;28;20613;-82
2021/12/06 03:57:03;;;;;;;28.70;19.90;;;2.30;99.90;;;;;;5035827;28;20731;-84
2021/12/06 03:59:31;;;;;;;24.13;18.07;;;2.30;99.90;;;;;;5075855;28;20716;-84
2021/12/06 04:01:57;;;;;;;30.20;19.23;;;2.30;99.90;;;;;;5055978;28;20793;-86
2021/12/06 04:04:25;;;;;;;28.43;19.57;;;2.30;99.90;;;;;;5070060;28;20780;-83
2021/12/06 04:06:52;;;;;;;30.80;20.93;;;2.30;99.90;;;;;;5040581;28;20221;-85
2021/12/06 04:09:21;;;;;;;32.50;20.23;;;2.30;99.90;;;;;;5072921;28;20720;-85
2021/12/06 04:11:49;;;;;;;29.60;20.30;;;2.30;99.90;;;;;;5074859;28;20601;-82
2021/12/06 04:14:15;;;;;;;25.87;18.50;;;2.30;99.90;;;;;;5063721;28;20609;-86
2021/12/06 04:16:42;;;;;;;30.10;19.77;;;2.30;99.90;;;;;;5068914;28;20627;-84
2021/12/06 04:19:09;;;;;;;29.43;19.80;;;2.30;99.90;;;;;;5070914;28;20625;-82
2021/12/06 04:21:35;;;;;;;28.00;20.10;;;2.30;99.90;;;;;;5075616;28;20618;-85
2021/12/06 04:24:02;;;;;;;28.93;19.10;;;2.30;99.90;;;;;;5073837;28;20579;-84
2021/12/06 04:26:36;;;;;;;28.07;19.20;;;2.30;99.90;;;;;;5086885;28;21247;-84
2021/12/06 04:29:02;;;;;;;29.57;18.93;;;2.30;99.90;;;;;;5071847;28;20621;-85
2021/12/06 04:31:31;;;;;;;34.50;20.17;;;2.30;99.90;;;;;;5070093;28;20972;-86
2021/12/06 04:33:57;;;;;;;32.27;20.60;;;2.40;99.90;;;;;;5070145;28;20609;-85
2021/12/06 04:36:23;;;;;;;32.57;20.00;;;2.40;99.90;;;;;;5074149;28;20645;-83
2021/12/06 04:38:49;;;;;;;30.70;20.30;;;2.60;99.90;;;;;;5055906;28;20838;-87
2021/12/06 04:41:15;;;;;;;30.50;20.70;;;2.40;99.90;;;;;;5069647;28;20654;-83
2021/12/06 04:43:41;;;;;;;26.23;17.90;;;2.40;99.90;;;;;;5073087;28;20224;-83
2021/12/06 04:46:06;;;;;;;28.97;20.00;;;2.40;99.90;;;;;;5071419;28;20254;-85
2021/12/06 04:48:38;;;;;;;26.87;18.63;;;2.40;99.90;;;;;;5052899;28;20646;-84
2021/12/06 04:51:04;;;;;;;26.57;19.20;;;2.40;99.90;;;;;;5070191;28;20192;-84
2021/12/06 04:53:36;;;;;;;26.90;18.43;;;2.40;99.90;;;;;;5075103;28;20643;-84
2021/12/06 04:56:18;;;;;;;27.60;17.90;;;2.40;99.90;;;;;;5069496;28;20602;-84
2021/12/06 04:59:04;;;;;;;27.27;16.40;;;2.40;99.90;;;;;;5050858;28;20765;-83
2021/12/06 05:01:33;;;;;;;23.90;15.77;;;2.40;99.90;;;;;;5088202;28;20648;-89
2021/12/06 05:04:07;;;;;;;20.17;14.00;;;2.50;99.90;;;;;;5068838;28;20716;-83
2021/12/06 05:06:42;;;;;;;23.10;15.93;;;2.50;99.90;;;;;;5052371;28;20740;-86
2021/12/06 05:09:13;;;;;;;19.23;13.33;;;2.50;99.90;;;;;;5069979;28;20734;-84
2021/12/06 05:11:42;;;;;;;20.10;14.40;;;2.60;99.90;;;;;;5073383;28;20609;-83
2021/12/06 05:14:08;;;;;;;20.10;14.03;;;2.60;99.90;;;;;;5054984;28;20760;-82
2021/12/06 05:16:36;;;;;;;18.90;13.70;;;2.60;99.90;;;;;;5051356;28;20764;-87
2021/12/06 05:19:04;;;;;;;17.73;12.63;;;2.60;99.90;;;;;;5073804;28;20626;-84
2021/12/06 05:21:33;;;;;;;21.57;13.07;;;2.70;99.90;;;;;;5071825;28;20598;-87
2021/12/06 05:24:02;;;;;;;18.80;13.47;;;2.70;99.90;;;;;;5071420;28;20625;-86
2021/12/06 05:26:34;;;;;;;21.07;13.80;;;2.70;99.90;;;;;;5071320;28;20618;-84
2021/12/06 05:29:04;;;;;;;20.90;13.47;;;2.70;99.90;;;;;;5073203;28;20775;-84
2021/12/06 05:31:30;;;;;;;18.97;13.50;;;2.70;99.90;;;;;;5072435;28;20618;-85
2021/12/06 05:34:07;;;;;;;20.60;13.90;;;2.80;99.90;;;;;;5054009;28;20678;-87
2021/12/06 05:36:33;;;;;;;17.60;13.03;;;2.80;99.90;;;;;;5070972;28;20226;-83
2021/12/06 05:39:06;;;;;;;21.30;14.30;;;2.80;99.90;;;;;;5073139;28;20657;-83
2021/12/06 05:41:35;;;;;;;19.93;13.10;;;2.80;99.90;;;;;;5065329;28;20622;-85
2021/12/06 05:44:01;;;;;;;20.47;12.57;;;2.80;99.90;;;;;;5065108;28;20681;-85
2021/12/06 05:46:36;;;;;;;17.33;12.40;;;2.80;99.90;;;;;;5072929;28;20652;-86
2021/12/06 05:49:04;;;;;;;18.80;13.27;;;2.80;99.90;;;;;;5059881;28;20647;-86
2021/12/06 05:51:33;;;;;;;20.23;12.90;;;2.80;99.90;;;;;;5049561;28;20650;-83
2021/12/06 05:53:58;;;;;;;16.57;11.23;;;2.80;99.90;;;;;;5039412;28;20615;-86
2021/12/06 05:56:24;;;;;;;17.43;11.83;;;2.80;99.90;;;;;;5050781;28;20654;-83
2021/12/06 05:58:50;;;;;;;19.00;11.87;;;2.80;99.90;;;;;;5071637;28;20278;-85
2021/12/06 06:01:28;;;;;;;18.27;13.10;;;2.80;99.90;;;;;;5070590;28;20190;-84
2021/12/06 06:03:54;;;;;;;19.80;12.97;;;2.90;99.90;;;;;;5050500;28;20188;-86
2021/12/06 06:06:25;;;;;;;19.80;12.50;;;2.80;99.90;;;;;;5043840;28;21196;-84
2021/12/06 06:08:51;;;;;;;19.10;12.27;;;2.80;99.90;;;;;;5064714;28;20224;-89
2021/12/06 06:11:16;;;;;;;15.43;10.70;;;2.80;99.90;;;;;;5067671;28;20684;-83
2021/12/06 06:13:42;;;;;;;17.17;12.17;;;2.80;99.90;;;;;;5052071;28;20204;-87
2021/12/06 06:16:07;;;;;;;16.93;10.90;;;2.90;99.90;;;;;;5056788;28;20235;-90
2021/12/06 06:18:35;;;;;;;16.83;11.20;;;2.90;99.90;;;;;;5062631;28;20235;-86
2021/12/06 06:21:05;;;;;;;16.87;11.83;;;2.90;99.90;;;;;;5061904;28;20192;-87
2021/12/06 06:23:30;;;;;;;18.37;11.57;;;2.90;99.90;;;;;;5068493;28;20686;-86
2021/12/06 06:25:58;;;;;;;17.00;10.93;;;2.50;99.90;;;;;;5061413;28;20633;-80
2021/12/06 06:28:26;;;;;;;16.00;11.57;;;2.90;99.90;;;;;;5066218;28;20258;-89
2021/12/06 06:30:52;;;;;;;18.30;11.63;;;2.90;99.90;;;;;;5075451;28;20605;-91
2021/12/06 06:33:18;;;;;;;17.13;10.40;;;2.90;99.90;;;;;;5044784;28;20668;-85
2021/12/06 06:35:43;;;;;;;15.70;10.93;;;2.90;99.90;;;;;;5060404;28;20818;-88
2021/12/06 06:38:09;;;;;;;18.73;11.63;;;2.90;99.90;;;;;;5050643;28;20277;-90
2021/12/06 06:40:35;;;;;;;17.40;11.13;;;2.90;99.90;;;;;;5053142;28;20355;-83
2021/12/06 06:43:01;;;;;;;16.27;11.20;;;2.60;99.90;;;;;;5040353;28;20192;-84
2021/12/06 06:45:26;;;;;;;12.83;10.00;;;3.20;99.90;;;;;;5046591;28;20268;-83
2021/12/06 06:47:53;;;;;;;17.60;11.90;;;2.90;99.90;;;;;;5059943;28;20645;-88
2021/12/06 06:50:20;;;;;;;15.90;11.70;;;2.90;99.90;;;;;;5070986;28;20249;-87
2021/12/06 06:52:47;;;;;;;14.60;11.13;;;2.90;99.90;;;;;;5071860;28;20664;-85
2021/12/06 06:55:13;;;;;;;16.63;11.47;;;3.00;99.90;;;;;;5065889;28;20603;-87
2021/12/06 06:57:40;;;;;;;16.63;11.10;;;3.00;99.90;;;;;;5051065;28;20706;-85
2021/12/06 07:00:13;;;;;;;18.40;11.77;;;3.00;99.90;;;;;;5086169;28;20220;-87
2021/12/06 07:02:39;;;;;;;16.77;11.43;;;3.00;99.90;;;;;;5053737;28;20597;-85
2021/12/06 07:05:06;;;;;;;15.97;10.70;;;3.00;99.90;;;;;;5067200;28;20652;-91
2021/12/06 07:07:33;;;;;;;20.37;11.13;;;3.00;99.90;;;;;;5052418;28;20653;-86
2021/12/06 07:10:01;;;;;;;16.23;11.10;;;3.00;99.90;;;;;;5057494;28;20641;-85
2021/12/06 07:12:27;;;;;;;14.93;10.77;;;3.00;99.90;;;;;;5070125;28;21646;-86
2021/12/06 07:14:53;;;;;;;13.87;10.27;;;3.00;99.90;;;;;;5058977;28;20626;-85
2021/12/06 07:17:18;;;;;;;15.17;10.60;;;3.00;99.90;;;;;;5073336;28;20629;-83
2021/12/06 07:19:45;;;;;;;16.40;11.63;;;3.30;99.90;;;;;;5074202;28;20729;-85
2021/12/06 07:22:11;;;;;;;15.00;11.40;;;3.30;99.90;;;;;;5063872;28;20355;-83
2021/12/06 07:24:37;;;;;;;15.17;10.53;;;3.00;99.90;;;;;;5041738;28;20668;-82
2021/12/06 07:27:03;;;;;;;14.43;10.30;;;3.10;99.90;;;;;;5048878;28;21046;-84
2021/12/06 07:29:33;;;;;;;16.23;10.70;;;3.00;99.90;;;;;;5071598;28;20637;-87
2021/12/06 07:32:00;;;;;;;17.00;12.10;;;3.00;99.90;;;;;;5071936;28;20641;-88
2021/12/06 07:34:26;;;;;;;14.60;10.30;;;3.00;99.90;;;;;;5070165;28;20657;-85
2021/12/06 07:36:52;;;;;;;14.83;11.30;;;3.00;99.90;;;;;;5082502;28;20712;-88
2021/12/06 07:39:18;;;;;;;13.27;9.70;;;3.00;99.90;;;;;;5053521;28;20730;-87
2021/12/06 07:41:44;;;;;;;16.23;9.90;;;3.00;99.90;;;;;;5071789;28;23729;-84
2021/12/06 07:44:10;;;;;;;16.13;10.93;;;3.00;99.90;;;;;;5053369;28;20630;-87
2021/12/06 07:46:36;;;;;;;14.93;10.00;;;3.00;99.90;;;;;;5053438;28;20793;-83
2021/12/06 07:49:02;;;;;;;12.57;9.77;;;3.00;99.90;;;;;;5067194;28;20223;-90
2021/12/06 07:51:29;;;;;;;13.30;9.93;;;3.20;99.90;;;;;;5053839;28;20641;-90
2021/12/06 07:53:56;;;;;;;13.70;10.70;;;3.00;99.90;;;;;;5051114;28;20685;-84
2021/12/06 07:56:22;;;;;;;15.93;10.30;;;3.00;99.90;;;;;;5066259;28;20756;-89
2021/12/06 07:58:48;;;;;;;15.97;11.30;;;3.00;99.90;;;;;;5086458;28;20661;-86
2021/12/06 08:01:14;;;;;;;12.10;9.13;;;3.00;99.90;;;;;;5066136;28;21176;-85
2021/12/06 08:03:41;;;;;;;16.83;10.57;;;3.00;99.90;;;;;;5066884;28;20642;-84
2021/12/06 08:06:08;;;;;;;13.93;9.90;;;3.00;99.90;;;;;;5053428;28;20752;-87
2021/12/06 08:08:35;;;;;;;13.50;9.90;;;3.00;99.90;;;;;;5057399;28;20772;-91
2021/12/06 08:11:06;;;;;;;15.13;10.23;;;3.00;99.90;;;;;;5055623;28;20688;-87
2021/12/06 08:13:34;;;;;;;16.60;10.80;;;2.90;99.90;;;;;;5083213;28;20689;-86
2021/12/06 08:16:04;;;;;;;14.30;10.40;;;2.90;99.90;;;;;;5041578;28;20737;-76
2021/12/06 08:18:30;;;;;;;13.93;10.00;;;2.90;99.90;;;;;;5057731;28;20704;-87
2021/12/06 08:20:59;;;;;;;13.40;9.70;;;3.00;99.90;;;;;;5048223;28;20617;-86
2021/12/06 08:23:25;;;;;;;12.43;9.83;;;3.00;99.90;;;;;;5067794;28;20702;-82
2021/12/06 08:25:51;;;;;;;13.30;9.93;;;3.30;99.90;;;;;;5069536;28;20606;-84
2021/12/06 08:28:18;;;;;;;14.63;10.60;;;3.00;99.90;;;;;;5069233;28;20520;-88
2021/12/06 08:30:44;;;;;;;13.87;10.13;;;3.00;99.90;;;;;;5050068;28;20688;-88
2021/12/06 08:33:12;;;;;;;12.87;9.07;;;3.00;99.90;;;;;;5071526;28;20698;-86
2021/12/06 08:35:41;;;;;;;13.80;10.30;;;3.00;99.90;;;;;;5068743;28;20645;-85
2021/12/06 08:38:08;;;;;;;15.17;10.10;;;3.00;99.90;;;;;;5068620;28;20607;-86
2021/12/06 08:40:34;;;;;;;13.40;9.80;;;3.00;99.90;;;;;;5053330;28;20623;-86
2021/12/06 08:43:00;;;;;;;13.00;9.50;;;3.10;99.90;;;;;;5058983;28;20606;-82
2021/12/06 08:45:28;;;;;;;15.13;9.67;;;3.00;99.90;;;;;;5065403;28;20696;-83
2021/12/06 08:47:54;;;;;;;13.97;9.23;;;3.40;99.90;;;;;;5078778;28;20709;-88
2021/12/06 08:50:22;;;;;;;14.43;9.80;;;3.10;99.90;;;;;;5085643;28;20621;-82
2021/12/06 08:52:48;;;;;;;15.57;10.47;;;3.10;99.90;;;;;;5082695;28;20640;-83
2021/12/06 08:55:16;;;;;;;14.07;9.33;;;3.10;99.90;;;;;;5082504;28;20773;-90
2021/12/06 08:57:42;;;;;;;16.40;10.07;;;3.10;99.90;;;;;;5069286;28;20722;-81
2021/12/06 09:00:12;;;;;;;11.97;9.40;;;3.10;99.90;;;;;;5053958;28;20729;-82
2021/12/06 09:02:38;;;;;;;17.07;11.20;;;3.20;99.90;;;;;;5042773;28;20633;-85
2021/12/06 09:05:05;;;;;;;13.57;8.67;;;3.10;99.90;;;;;;5060641;28;20637;-81
2021/12/06 09:07:32;;;;;;;10.57;8.80;;;3.20;99.90;;;;;;5079650;28;20701;-80
2021/12/06 09:09:58;;;;;;;13.33;10.53;;;3.20;99.90;;;;;;5090338;28;20705;-86
2021/12/06 09:12:28;;;;;;;14.10;9.67;;;3.30;99.90;;;;;;5088412;28;20667;-81
2021/12/06 09:15:04;;;;;;;14.00;9.70;;;3.20;99.90;;;;;;5051277;28;20637;-86
2021/12/06 09:17:30;;;;;;;13.23;9.17;;;3.20;99.90;;;;;;5076522;28;20633;-82
2021/12/06 09:19:56;;;;;;;14.93;9.53;;;3.20;99.90;;;;;;5056136;28;20642;-80
2021/12/06 09:22:22;;;;;;;12.50;9.13;;;3.10;99.90;;;;;;5061854;28;20647;-82
2021/12/06 09:24:49;;;;;;;14.27;9.57;;;3.20;99.90;;;;;;5069039;28;20227;-81
2021/12/06 09:27:15;;;;;;;13.57;9.93;;;3.20;99.90;;;;;;5072654;28;20660;-79
2021/12/06 09:29:41;;;;;;;13.50;10.30;;;3.30;99.90;;;;;;5073731;28;20739;-80
2021/12/06 09:32:10;;;;;;;15.00;9.27;;;3.30;99.90;;;;;;5072825;28;20637;-84
2021/12/06 09:34:39;;;;;;;13.03;9.50;;;3.30;99.90;;;;;;5081622;28;21153;-80
2021/12/06 09:37:05;;;;;;;13.03;9.40;;;3.30;99.90;;;;;;5078163;28;20629;-83
2021/12/06 09:39:32;;;;;;;14.17;10.07;;;3.30;99.90;;;;;;5067766;28;20643;-81
2021/12/06 09:41:58;;;;;;;14.20;9.50;;;3.30;99.90;;;;;;5061279;28;20617;-80
2021/12/06 09:44:24;;;;;;;11.90;9.30;;;3.30;99.90;;;;;;5084190;28;20628;-81
2021/12/06 09:46:51;;;;;;;14.37;9.30;;;3.40;99.90;;;;;;5086737;28;21102;-84
2021/12/06 09:49:19;;;;;;;15.20;10.67;;;3.40;99.90;;;;;;5088914;28;20655;-89
2021/12/06 09:51:52;;;;;;;13.20;9.40;;;3.40;99.90;;;;;;5093438;28;20683;-80
2021/12/06 09:54:21;;;;;;;11.93;10.07;;;3.50;99.90;;;;;;5089810;28;20584;-83
2021/12/06 09:56:49;;;;;;;14.70;9.60;;;3.50;99.90;;;;;;5089931;28;20634;-85
2021/12/06 09:59:18;;;;;;;14.63;10.37;;;3.40;99.90;;;;;;5086811;28;20742;-86
2021/12/06 10:01:55;;;;;;;13.63;9.90;;;3.40;99.90;;;;;;5094210;28;20650;-85
2021/12/06 10:04:23;;;;;;;12.90;9.47;;;3.40;99.90;;;;;;5087094;28;20593;-85
2021/12/06 10:06:50;;;;;;;15.03;10.57;;;3.30;99.90;;;;;;5073424;28;20696;-85
2021/12/06 10:09:18;;;;;;;14.63;10.87;;;3.40;99.90;;;;;;5088709;28;20640;-83
2021/12/06 10:11:44;;;;;;;16.80;11.40;;;3.50;99.90;;;;;;5089297;28;20620;-86
2021/12/06 10:14:10;;;;;;;15.53;11.13;;;3.60;99.90;;;;;;5089070;28;20617;-84
2021/12/06 10:16:37;;;;;;;14.87;10.40;;;3.70;99.90;;;;;;5087820;28;20629;-88
2021/12/06 10:19:05;;;;;;;16.03;11.03;;;3.60;99.90;;;;;;5083694;28;20211;-83
2021/12/06 10:21:32;;;;;;;14.60;10.80;;;3.70;99.90;;;;;;5090395;28;20678;-86
2021/12/06 10:23:59;;;;;;;15.30;11.03;;;3.70;99.90;;;;;;5094923;28;20638;-85
2021/12/06 10:26:29;;;;;;;15.00;11.63;;;3.70;99.90;;;;;;5073281;28;20644;-87
2021/12/06 10:29:00;;;;;;;16.20;11.63;;;3.80;99.90;;;;;;5089542;28;20981;-86
2021/12/06 10:31:29;;;;;;;16.87;11.20;;;3.80;99.90;;;;;;5085814;28;20752;-86
2021/12/06 10:33:55;;;;;;;17.53;11.43;;;4.00;99.90;;;;;;5092792;28;20621;-84
2021/12/06 10:36:24;;;;;;;14.47;11.20;;;3.80;99.90;;;;;;5071277;28;20675;-81
2021/12/06 10:38:53;;;;;;;17.70;12.27;;;3.80;99.90;;;;;;5090452;28;20203;-84
2021/12/06 10:41:22;;;;;;;16.40;11.90;;;3.80;99.90;;;;;;5074981;28;20631;-85
2021/12/06 10:43:58;;;;;;;17.07;11.00;;;3.80;99.90;;;;;;5089405;28;20621;-87
2021/12/06 10:46:25;;;;;;;19.03;12.30;;;3.80;99.90;;;;;;5089254;28;20643;-87
2021/12/06 10:48:54;;;;;;;20.10;12.97;;;3.80;99.90;;;;;;5090287;28;20648;-86
2021/12/06 10:51:21;;;;;;;17.77;12.40;;;3.80;99.90;;;;;;5084669;28;20626;-85
2021/12/06 10:54:00;;;;;;;19.70;13.47;;;3.70;99.90;;;;;;5076736;28;20733;-87
2021/12/06 10:56:36;;;;;;;21.70;14.20;;;3.80;99.90;;;;;;5071083;28;20664;-90
2021/12/06 10:59:09;;;;;;;17.83;13.10;;;3.80;99.90;;;;;;5086551;28;20633;-84
2021/12/06 11:01:35;;;;;;;19.67;12.90;;;3.70;99.90;;;;;;5069433;28;20673;-84
2021/12/06 11:04:03;;;;;;;20.00;14.20;;;3.60;99.90;;;;;;5086731;28;20652;-82
2021/12/06 11:06:41;;;;;;;20.80;14.80;;;3.60;99.90;;;;;;5086089;28;20229;-87
2021/12/06 11:09:09;;;;;;;24.87;14.60;;;3.40;99.90;;;;;;5070805;28;20723;-89
2021/12/06 11:11:39;;;;;;;20.70;14.83;;;3.40;99.90;;;;;;5078880;28;20628;-86
2021/12/06 11:14:14;;;;;;;23.47;15.60;;;3.30;99.90;;;;;;5088059;28;20685;-86
2021/12/06 11:16:43;;;;;;;20.47;14.57;;;3.10;99.90;;;;;;5092055;28;20629;-85
2021/12/06 11:19:14;;;;;;;22.00;15.80;;;3.10;99.90;;;;;;5083598;28;20656;-84
2021/12/06 11:21:54;;;;;;;26.97;16.10;;;3.10;99.90;;;;;;5090863;28;20598;-89
2021/12/06 11:24:26;;;;;;;23.90;15.13;;;3.20;99.90;;;;;;5075743;28;20664;-85
2021/12/06 11:27:00;;;;;;;22.40;15.57;;;3.20;99.90;;;;;;5069038;28;20740;-87
2021/12/06 11:29:31;;;;;;;23.07;16.00;;;3.20;99.90;;;;;;5090201;28;20809;-84
2021/12/06 11:32:13;;;;;;;23.07;16.70;;;3.00;99.90;;;;;;5066681;28;20714;-82
2021/12/06 11:34:46;;;;;;;28.07;17.73;;;3.10;99.90;;;;;;5089943;28;20578;-86
2021/12/06 11:37:25;;;;;;;23.83;16.90;;;3.00;99.90;;;;;;5075812;28;20658;-87
2021/12/06 11:40:14;;;;;;;23.23;16.57;;;2.80;99.90;;;;;;5067273;28;20657;-88
2021/12/06 11:43:03;;;;;;;25.60;16.77;;;2.80;99.90;;;;;;5074209;28;20705;-88
2021/12/06 11:45:34;;;;;;;28.03;18.10;;;2.90;99.90;;;;;;5070226;28;20696;-86
2021/12/06 11:48:06;;;;;;;24.10;15.50;;;2.90;99.90;;;;;;5039314;28;20662;-89
2021/12/06 11:50:33;;;;;;;27.50;18.53;;;3.00;99.90;;;;;;5031075;28;20660;-87
2021/12/06 11:53:06;;;;;;;24.53;16.70;;;2.90;99.90;;;;;;5067114;28;20650;-83
2021/12/06 11:55:33;;;;;;;26.17;17.47;;;3.00;99.90;;;;;;5066970;28;20637;-85
2021/12/06 11:57:58;;;;;;;28.03;17.93;;;3.00;99.90;;;;;;5044864;28;20647;-87
2021/12/06 12:00:26;;;;;;;26.90;17.73;;;3.00;99.90;;;;;;5070493;28;20626;-85
2021/12/06 12:02:57;;;;;;;23.60;17.30;;;3.00;99.90;;;;;;5070625;28;20674;-87
2021/12/06 12:05:35;;;;;;;29.50;18.30;;;3.00;99.90;;;;;;5068818;28;20597;-87
2021/12/06 12:08:09;;;;;;;29.33;19.80;;;3.00;99.90;;;;;;5075555;28;20709;-86
2021/12/06 12:10:55;;;;;;;27.30;17.87;;;3.10;99.90;;;;;;5069413;28;20587;-83
2021/12/06 12:13:26;;;;;;;26.43;18.40;;;3.20;99.90;;;;;;5069322;28;20660;-87
2021/12/06 12:15:54;;;;;;;29.30;20.27;;;3.20;99.90;;;;;;5069974;28;20621;-87
2021/12/06 12:18:20;;;;;;;29.77;20.70;;;3.20;99.90;;;;;;5054281;28;20746;-83
2021/12/06 12:20:47;;;;;;;29.97;19.10;;;3.10;99.90;;;;;;5068633;28;20617;-85
2021/12/06 12:23:13;;;;;;;31.23;20.73;;;3.10;99.90;;;;;;5054992;28;20871;-84
2021/12/06 12:25:49;;;;;;;26.00;18.20;;;3.20;99.90;;;;;;5069076;28;20629;-83
2021/12/06 12:28:20;;;;;;;30.57;21.20;;;3.10;99.90;;;;;;5069451;28;20642;-82
2021/12/06 12:30:48;;;;;;;31.77;19.87;;;3.10;99.90;;;;;;5055502;28;20735;-86
2021/12/06 12:33:18;;;;;;;29.40;19.97;;;3.00;99.90;;;;;;5064736;28;20650;-89
2021/12/06 12:35:44;;;;;;;31.97;20.40;;;3.10;99.90;;;;;;5070045;28;20725;-84
2021/12/06 12:38:11;;;;;;;30.13;19.73;;;3.10;99.90;;;;;;5061170;28;20650;-89
2021/12/06 12:40:40;;;;;;;30.87;20.57;;;2.90;99.90;;;;;;5039633;28;21301;-81
2021/12/06 12:43:17;;;;;;;31.10;19.17;;;2.90;99.90;;;;;;5026075;28;20639;-83
2021/12/06 12:45:46;;;;;;;31.73;20.20;;;2.90;99.90;;;;;;5053763;28;20665;-81
2021/12/06 12:48:15;;;;;;;31.70;20.60;;;2.90;99.90;;;;;;5063001;28;20646;-83
2021/12/06 12:50:59;;;;;;;30.73;19.00;;;2.90;99.90;;;;;;5068490;28;20705;-80
2021/12/06 12:53:25;;;;;;;28.80;19.63;;;2.90;99.90;;;;;;5066815;28;20646;-82
2021/12/06 12:55:51;;;;;;;29.43;19.63;;;3.00;99.90;;;;;;5039921;28;20629;-84